Date,TemperatureHighF,TemperatureAvgF,TemperatureLowF,DewpointHighF,DewpointAvgF,DewpointLowF,HumidityHigh,HumidityAvg,HumidityLow,PressureMaxIn,PressureMinIn,WindSpeedMaxMPH,WindSpeedAvgMPH,GustSpeedMaxMPH,PrecipitationSumIn
2013-1-1,44,37,34,34,30,19,98,77,36,0.00,40.00,18,7,37,0.26
2013-1-2,34,31,31,34,26,-100,100,94,98,0.00,40.00,8,2,17,0.39
2013-1-3,35,32,30,35,32,30,100,100,100,0.00,40.00,8,3,20,0.41
2013-1-4,39,35,33,36,34,32,100,96,88,0.00,40.00,8,4,20,0.98
2013-1-5,38,36,32,37,35,32,100,94,87,0.00,40.00,6,3,11,0.19
2013-1-6,36,34,32,35,33,32,100,96,87,0.00,40.00,7,3,15,0.07
2013-1-7,36,34,30,36,34,30,100,99,96,0.00,40.00,6,3,12,0.12
2013-1-8,33,32,30,33,32,30,100,100,100,0.00,40.00,6,3,12,0.01
2013-1-9,35,29,20,32,26,18,100,90,75,0.00,40.00,10,4,18,0.03
2013-1-10,30,27,23,28,26,22,97,94,86,0.00,40.00,4,2,7,0.01
2013-1-11,33,31,29,32,30,28,99,97,94,0.00,40.00,5,2,9,0.00
2013-1-12,37,32,30,34,30,29,98,95,76,0.00,40.00,3,1,7,0.05
2013-1-13,36,34,32,36,34,32,100,100,98,0.00,40.00,5,4,10,0.35
2013-1-14,41,39,36,41,39,36,100,100,100,0.00,40.00,8,5,16,0.12
2013-1-15,39,37,36,39,37,36,100,100,99,0.00,40.00,10,7,21,0.77
2013-1-16,41,37,35,39,37,35,100,100,100,0.00,40.00,11,5,19,1.09
2013-1-17,41,39,32,41,39,31,100,99,98,0.00,40.00,14,8,30,1.74
2013-1-18,36,32,29,34,32,29,100,97,91,0.00,40.00,4,2,8,0.01
2013-1-19,35,33,31,33,30,28,99,91,82,0.00,40.00,9,5,16,0.01
2013-1-20,39,36,33,37,32,28,96,85,80,0.00,40.00,8,4,14,0.00
2013-1-21,42,38,34,39,37,34,100,96,89,0.00,40.00,7,4,16,0.00
2013-1-22,40,36,32,40,36,32,100,98,85,0.00,40.00,6,3,11,0.34
2013-1-23,38,36,35,38,36,35,100,98,95,0.00,40.00,8,5,16,0.30
2013-1-24,41,38,36,37,35,31,100,90,66,0.00,40.00,8,4,26,0.04
2013-1-25,40,38,37,39,36,31,99,93,70,0.00,40.00,12,7,26,0.13
2013-1-26,37,35,31,37,34,29,100,97,93,0.00,40.00,7,5,16,0.04
2013-1-27,35,30,27,32,29,25,99,93,72,0.00,40.00,6,3,12,0.02
2013-1-28,29,17,12,27,12,5,94,81,69,0.00,40.00,16,11,31,0.01
2013-1-29,32,24,14,31,23,11,100,94,86,0.00,40.00,8,4,16,0.00
2013-1-30,37,34,32,37,34,32,100,100,99,0.00,40.00,6,2,11,0.50
2013-1-31,40,37,34,40,37,34,100,100,100,0.00,40.00,5,3,9,0.70